Time;durP1;ratioP1;P1;durP2;ratioP2;P2;SDS_P1;SDS_P2;PMS_P1;PMS_P2;Temp;Humidity;BMP_temperature;BMP_pressure;BME280_temperature;BME280_humidity;BME280_pressure;Samples;Min_cycle;Max_cycle;Signal;HPM_P1;HPM_P2
2021/03/17 00:00:30;;;;;;;8.00;2.95;;;;;;;11.44;78.53;100419.41;4999622;28;20129;-67
2021/03/17 00:02:57;;;;;;;4.50;1.80;;;;;;;11.37;78.81;100425.53;5002803;28;20126;-67
2021/03/17 00:05:29;;;;;;;5.50;1.48;;;;;;;11.39;79.07;100426.44;4990755;28;20042;-67
2021/03/17 00:07:56;;;;;;;4.85;1.48;;;;;;;11.43;78.97;100422.03;4990247;28;20069;-67
2021/03/17 00:10:26;;;;;;;3.58;1.40;;;;;;;11.44;78.81;100419.41;5000062;28;20042;-67
2021/03/17 00:12:58;;;;;;;17.05;9.80;;;;;;;11.32;78.60;100416.69;4980091;28;20522;-68
2021/03/17 00:15:28;;;;;;;4.43;1.70;;;;;;;11.29;78.69;100421.09;4991722;28;20034;-67
2021/03/17 00:17:55;;;;;;;4.35;1.40;;;;;;;11.21;78.88;100421.03;4991530;28;20514;-67
2021/03/17 00:20:23;;;;;;;6.25;1.55;;;;;;;11.21;78.89;100409.56;4991359;28;20121;-67
2021/03/17 00:22:51;;;;;;;17.40;11.38;;;;;;;11.16;78.91;100409.50;4989875;28;20081;-67
2021/03/17 00:25:19;;;;;;;8.77;4.55;;;;;;;11.17;78.68;100404.25;4984281;28;20043;-67
2021/03/17 00:27:47;;;;;;;8.52;4.80;;;;;;;11.31;78.15;100414.91;4971488;28;20046;-67
2021/03/17 00:30:16;;;;;;;10.02;3.88;;;;;;;11.31;77.73;100419.31;4982795;28;20492;-68
2021/03/17 00:32:43;;;;;;;8.65;4.40;;;;;;;11.24;77.83;100414.84;4971862;28;20043;-68
2021/03/17 00:35:11;;;;;;;6.95;2.40;;;;;;;11.27;77.87;100421.06;4971254;28;20122;-67
2021/03/17 00:37:38;;;;;;;4.32;2.15;;;;;;;11.20;77.88;100413.97;4976467;28;20041;-67
2021/03/17 00:40:06;;;;;;;3.78;1.55;;;;;;;11.26;77.71;100414.00;4987991;28;20030;-68
2021/03/17 00:42:33;;;;;;;4.90;1.50;;;;;;;11.27;77.80;100407.84;4982623;28;20085;-67
2021/03/17 00:45:01;;;;;;;4.35;1.30;;;;;;;11.28;77.74;100406.09;4970640;28;20046;-67
2021/03/17 00:47:28;;;;;;;4.65;1.48;;;;;;;11.24;77.44;100407.81;4971663;28;20126;-67
2021/03/17 00:49:55;;;;;;;4.75;1.17;;;;;;;11.16;77.65;100407.75;4971283;28;20094;-67
2021/03/17 00:52:22;;;;;;;4.13;1.00;;;;;;;11.10;77.82;100410.34;4987331;28;20134;-67
2021/03/17 00:54:49;;;;;;;5.85;1.38;;;;;;;10.93;77.93;100404.06;4992901;28;20049;-67
2021/03/17 00:57:16;;;;;;;10.10;2.88;;;;;;;10.78;78.17;100412.75;4992496;28;20089;-67
2021/03/17 00:59:43;;;;;;;24.77;12.70;;;;;;;10.60;78.24;100407.28;4992784;28;20042;-67
2021/03/17 01:02:11;;;;;;;17.90;12.50;;;;;;;10.49;78.64;100408.06;4974761;28;20516;-67
2021/03/17 01:04:38;;;;;;;5.18;1.10;;;;;;;10.56;78.64;100409.91;4990657;28;20061;-67
2021/03/17 01:07:08;;;;;;;7.00;1.40;;;;;;;10.64;78.42;100408.19;4994103;28;20125;-67
2021/03/17 01:09:36;;;;;;;9.20;1.50;;;;;;;10.69;78.02;100403.88;4993667;28;20042;-67
2021/03/17 01:12:03;;;;;;;9.07;3.33;;;;;;;10.64;77.66;100401.16;4984203;28;20522;-67
2021/03/17 01:14:30;;;;;;;13.65;5.63;;;;;;;10.62;77.18;100396.75;4992830;28;20038;-67
2021/03/17 01:16:57;;;;;;;32.53;14.32;;;;;;;10.59;77.13;100389.69;5003962;28;20396;-67
2021/03/17 01:19:27;;;;;;;16.77;6.18;;;;;;;10.47;76.91;100394.84;5005751;28;20054;-67
2021/03/17 01:21:54;;;;;;;4.40;1.50;;;;;;;10.35;77.12;100398.25;4994097;28;20058;-67
2021/03/17 01:24:21;;;;;;;9.02;1.60;;;;;;;10.35;77.24;100400.00;4993735;28;20042;-67
2021/03/17 01:26:49;;;;;;;5.80;1.60;;;;;;;10.38;77.13;100400.03;4993962;28;20042;-67
2021/03/17 01:29:16;;;;;;;8.57;2.53;;;;;;;10.39;76.72;100396.53;5002625;28;20050;-67
2021/03/17 01:31:43;;;;;;;6.32;2.40;;;;;;;10.35;76.85;100395.63;5010886;28;20504;-67
2021/03/17 01:34:10;;;;;;;7.50;2.28;;;;;;;10.31;76.75;100395.53;5013348;28;20423;-67
2021/03/17 01:36:39;;;;;;;6.38;1.50;;;;;;;10.24;76.44;100386.69;5011663;28;20392;-68
2021/03/17 01:39:06;;;;;;;7.30;1.73;;;;;;;10.13;76.47;100388.28;5011636;28;20038;-67
2021/03/17 01:41:34;;;;;;;3.13;1.13;;;;;;;10.07;76.43;100382.94;5011489;28;20045;-67
2021/03/17 01:44:01;;;;;;;4.88;1.05;;;;;;;9.97;76.21;100392.53;5004141;28;20072;-67
2021/03/17 01:46:29;;;;;;;3.72;1.80;;;;;;;9.86;76.44;100391.50;4997420;28;20039;-67
2021/03/17 01:48:56;;;;;;;8.65;2.10;;;;;;;9.72;76.37;100387.78;5008300;28;20366;-67
2021/03/17 01:51:23;;;;;;;8.15;2.00;;;;;;;9.71;76.63;100390.44;5000189;28;20095;-67
2021/03/17 01:53:51;;;;;;;4.43;1.98;;;;;;;9.77;76.46;100388.75;5012348;28;20515;-67
2021/03/17 01:56:19;;;;;;;5.10;1.27;;;;;;;9.86;76.17;100382.69;4979611;28;20058;-67
2021/03/17 01:58:46;;;;;;;7.15;1.30;;;;;;;9.84;75.81;100384.44;4976810;28;20504;-67
2021/03/17 02:01:13;;;;;;;4.70;1.15;;;;;;;9.82;75.45;100384.41;4986733;28;20038;-67
2021/03/17 02:03:41;;;;;;;3.88;1.38;;;;;;;9.86;75.43;100385.31;4992204;28;20042;-67
2021/03/17 02:06:08;;;;;;;5.00;2.40;;;;;;;9.90;75.31;100393.31;4985109;28;20035;-67
2021/03/17 02:08:36;;;;;;;4.90;1.50;;;;;;;9.91;75.09;100388.94;4973394;28;20055;-67
2021/03/17 02:11:05;;;;;;;3.45;1.00;;;;;;;9.92;74.65;100393.31;4973384;28;20041;-67
2021/03/17 02:13:54;;;;;;;3.60;1.13;;;;;;;9.91;74.68;100386.28;4973063;28;20039;-67
2021/03/17 02:16:26;;;;;;;3.80;0.90;;;;;;;9.86;74.37;100380.94;4974445;28;20051;-67
2021/03/17 02:19:11;;;;;;;4.95;1.40;;;;;;;9.84;74.22;100380.06;4986082;28;20052;-67
2021/03/17 02:21:58;;;;;;;2.88;1.00;;;;;;;9.80;74.32;100377.34;4990732;28;20042;-67
2021/03/17 02:24:31;;;;;;;5.15;1.08;;;;;;;9.87;74.18;100382.72;4953920;28;20102;-66
2021/03/17 02:27:40;;;;;;;6.72;1.60;;;;;;;9.94;73.88;100388.94;4957798;28;20042;-67
2021/03/17 02:30:46;;;;;;;3.17;1.60;;;;;;;9.98;73.61;100390.75;4960649;28;20038;-67
2021/03/17 02:33:45;;;;;;;5.85;2.00;;;;;;;9.99;73.60;100388.13;4979905;28;20050;-67
2021/03/17 02:36:15;;;;;;;8.73;1.35;;;;;;;9.89;73.84;100395.94;4974085;28;20120;-67
2021/03/17 02:39:08;;;;;;;4.60;1.50;;;;;;;9.88;73.55;100387.13;5046579;28;20645;-68
2021/03/17 02:41:44;;;;;;;8.27;1.33;;;;;;;9.82;73.12;100387.06;5046178;28;20056;-68
2021/03/17 02:44:17;;;;;;;6.95;2.30;;;;;;;9.74;73.49;100382.53;5046933;28;20045;-68
2021/03/17 02:46:46;;;;;;;5.40;1.45;;;;;;;9.73;72.88;100386.03;5046708;28;20176;-68
2021/03/17 02:49:18;;;;;;;2.78;1.15;;;;;;;9.83;72.33;100382.69;5045308;28;20048;-68
2021/03/17 02:51:50;;;;;;;8.30;1.30;;;;;;;9.86;72.15;100386.22;5046485;28;20065;-68
2021/03/17 02:54:22;;;;;;;3.35;0.80;;;;;;;9.83;72.19;100382.69;5046731;28;20037;-68
2021/03/17 02:56:54;;;;;;;3.65;0.73;;;;;;;9.78;72.12;100384.38;5046294;28;20102;-69
2021/03/17 02:59:22;;;;;;;5.95;1.10;;;;;;;9.72;71.97;100390.41;5046826;28;20037;-68
2021/03/17 03:01:52;;;;;;;2.85;0.80;;;;;;;9.69;71.80;100394.78;5045714;28;20072;-69
2021/03/17 03:04:21;;;;;;;3.13;1.20;;;;;;;9.68;71.55;100401.81;5046544;28;20047;-69
2021/03/17 03:06:50;;;;;;;3.17;1.25;;;;;;;9.69;71.23;100395.69;5045412;28;20038;-69
2021/03/17 03:09:19;;;;;;;2.28;0.82;;;;;;;9.70;70.73;100391.28;5046322;28;20497;-69
2021/03/17 03:11:46;;;;;;;7.13;1.00;;;;;;;9.65;71.05;100393.00;5045604;28;20129;-68
2021/03/17 03:14:14;;;;;;;3.08;0.90;;;;;;;9.65;71.10;100398.25;5046541;28;20041;-68
2021/03/17 03:16:42;;;;;;;3.92;0.63;;;;;;;9.60;71.16;100391.16;5045844;28;20048;-68
2021/03/17 03:19:11;;;;;;;1.38;0.75;;;;;;;9.63;70.52;100390.31;5046434;28;20086;-68
2021/03/17 03:21:38;;;;;;;4.78;0.80;;;;;;;9.73;69.79;100400.09;5045996;28;20140;-69
2021/03/17 03:24:05;;;;;;;4.75;0.77;;;;;;;9.82;69.43;100401.97;5045808;28;20045;-69
2021/03/17 03:26:35;;;;;;;3.53;1.00;;;;;;;9.90;68.31;100400.34;5045866;28;20043;-69
2021/03/17 03:29:04;;;;;;;8.18;2.25;;;;;;;9.98;68.31;100398.66;5045741;28;20494;-69
2021/03/17 03:31:35;;;;;;;8.05;2.60;;;;;;;9.95;67.66;100404.78;5045852;28;20048;-69
2021/03/17 03:34:04;;;;;;;12.43;4.78;;;;;;;10.01;67.07;100403.97;5046352;28;20041;-69
2021/03/17 03:36:31;;;;;;;3.70;1.20;;;;;;;10.08;65.47;100410.22;5046211;28;20125;-69
2021/03/17 03:39:01;;;;;;;3.33;1.17;;;;;;;10.16;64.94;100409.44;5044447;28;20037;-69
2021/03/17 03:41:28;;;;;;;4.65;1.80;;;;;;;10.29;64.74;100419.28;5045785;28;20044;-69
2021/03/17 03:43:56;;;;;;;5.90;1.25;;;;;;;10.37;63.29;100411.47;5044268;28;20650;-69
2021/03/17 03:46:23;;;;;;;2.97;1.50;;;;;;;10.40;62.84;100406.22;5045746;28;20116;-69
2021/03/17 03:48:50;;;;;;;4.55;1.10;;;;;;;10.58;61.00;100411.66;5039634;28;20132;-69
2021/03/17 03:51:19;;;;;;;3.65;1.00;;;;;;;10.61;61.21;100413.47;5031968;28;20434;-69
2021/03/17 03:54:07;;;;;;;6.38;1.13;;;;;;;10.57;61.36;100414.28;5031460;28;20047;-69
2021/03/17 03:56:40;;;;;;;2.28;0.70;;;;;;;10.60;61.95;100407.28;5030330;28;20044;-69
2021/03/17 03:59:12;;;;;;;3.58;0.85;;;;;;;10.56;62.36;100425.72;5031106;28;20501;-69
2021/03/17 04:01:44;;;;;;;2.80;0.80;;;;;;;10.56;62.32;100420.47;5032252;28;20567;-66
2021/03/17 04:04:13;;;;;;;7.45;1.42;;;;;;;10.61;62.71;100414.34;5032214;28;20041;-68
2021/03/17 04:06:45;;;;;;;4.10;1.00;;;;;;;10.60;62.46;100412.56;5032190;28;20064;-69
2021/03/17 04:09:14;;;;;;;2.15;0.70;;;;;;;10.59;62.98;100416.06;5032101;28;20041;-69
2021/03/17 04:11:42;;;;;;;4.95;1.00;;;;;;;10.60;61.79;100417.84;5032031;28;20095;-69
2021/03/17 04:14:12;;;;;;;6.45;0.82;;;;;;;10.61;61.95;100416.97;5031877;28;20037;-69
2021/03/17 04:16:41;;;;;;;3.60;0.80;;;;;;;10.70;61.76;100416.16;5031700;28;20433;-69
2021/03/17 04:19:09;;;;;;;5.43;1.48;;;;;;;10.67;62.00;100424.97;5031895;28;20498;-69
2021/03/17 04:21:41;;;;;;;2.05;0.75;;;;;;;10.72;62.19;100425.00;5031924;28;20063;-69
2021/03/17 04:24:09;;;;;;;4.95;1.10;;;;;;;10.81;61.79;100435.66;5031490;28;20505;-69
2021/03/17 04:26:38;;;;;;;6.43;0.82;;;;;;;10.81;61.66;100442.69;5031533;28;20056;-69
2021/03/17 04:29:06;;;;;;;11.35;5.20;;;;;;;10.80;61.48;100436.53;5030474;28;20040;-68
2021/03/17 04:31:36;;;;;;;11.20;2.20;;;;;;;10.82;61.81;100434.78;5031746;28;20044;-68
2021/03/17 04:34:04;;;;;;;8.07;2.63;;;;;;;10.78;61.70;100431.22;5031493;28;20150;-69
2021/03/17 04:36:33;;;;;;;9.38;2.25;;;;;;;10.78;61.72;100433.84;5031449;28;20105;-68
2021/03/17 04:39:01;;;;;;;5.85;1.98;;;;;;;10.84;61.96;100432.13;5011209;28;20046;-69
2021/03/17 04:41:29;;;;;;;3.20;1.30;;;;;;;10.89;61.11;100441.00;5020870;28;20494;-70
2021/03/17 04:43:57;;;;;;;0.55;0.40;;;;;;;10.82;61.98;100453.28;5030561;28;20045;-69
2021/03/17 04:46:24;;;;;;;4.78;0.88;;;;;;;10.74;62.24;100449.66;5031675;28;20117;-69
2021/03/17 04:48:54;;;;;;;3.97;1.20;;;;;;;10.73;62.18;100445.25;5030298;28;20065;-69
2021/03/17 04:51:23;;;;;;;3.58;0.70;;;;;;;10.78;62.37;100454.97;5031662;28;20029;-69
2021/03/17 04:53:51;;;;;;;3.08;1.20;;;;;;;11.00;61.62;100453.44;5030900;28;20506;-69
2021/03/17 04:56:19;;;;;;;3.58;0.80;;;;;;;11.11;61.35;100454.41;5030836;28;20061;-69
2021/03/17 04:58:49;;;;;;;4.00;0.70;;;;;;;11.26;61.11;100443.06;5030546;28;20049;-69
2021/03/17 05:01:17;;;;;;;7.28;1.23;;;;;;;11.46;60.50;100454.69;5030086;28;20148;-69
2021/03/17 05:03:46;;;;;;;4.80;1.23;;;;;;;11.63;59.85;100456.53;5030979;28;20037;-69
2021/03/17 05:06:15;;;;;;;7.00;1.75;;;;;;;11.70;60.94;100456.56;5031113;28;20037;-69
2021/03/17 05:08:45;;;;;;;1.98;0.63;;;;;;;11.78;61.75;100451.38;5030533;28;20040;-69
2021/03/17 05:11:15;;;;;;;4.03;0.70;;;;;;;11.85;61.04;100456.72;5031449;28;20041;-69
2021/03/17 05:13:43;;;;;;;0.95;0.45;;;;;;;12.04;61.92;100454.16;5030302;28;20041;-69
2021/03/17 05:16:13;;;;;;;5.03;0.63;;;;;;;12.18;61.64;100465.69;5029759;28;20106;-70
2021/03/17 05:18:41;;;;;;;3.85;0.85;;;;;;;12.33;61.87;100465.75;5030715;28;20124;-70
2021/03/17 05:21:11;;;;;;;1.55;0.52;;;;;;;12.50;61.25;100468.44;5031194;28;20044;-69
2021/03/17 05:23:40;;;;;;;4.72;0.70;;;;;;;12.61;60.67;100467.59;5030416;28;20547;-70
2021/03/17 05:26:07;;;;;;;6.25;1.83;;;;;;;12.73;60.43;100474.69;5030253;28;20141;-69
2021/03/17 05:28:35;;;;;;;5.60;2.28;;;;;;;12.85;59.07;100469.41;5030115;28;20037;-71
2021/03/17 05:31:02;;;;;;;4.53;1.30;;;;;;;13.01;57.68;100468.53;5030367;28;20052;-70
2021/03/17 05:33:31;;;;;;;3.80;1.15;;;;;;;13.15;57.08;100471.22;5029238;28;20042;-70
2021/03/17 05:35:58;;;;;;;4.25;1.80;;;;;;;13.34;56.87;100472.09;5028485;28;20037;-70
2021/03/17 05:38:25;;;;;;;12.95;4.05;;;;;;;13.55;56.64;100480.94;5029299;28;20033;-70
2021/03/17 05:40:56;;;;;;;7.10;3.05;;;;;;;13.72;55.70;100488.00;5029378;28;20378;-70
2021/03/17 05:43:23;;;;;;;8.15;2.42;;;;;;;13.85;54.98;100474.69;5030018;28;20040;-70
2021/03/17 05:45:52;;;;;;;10.10;2.50;;;;;;;13.93;52.70;100485.28;5029252;28;20124;-70
2021/03/17 05:48:20;;;;;;;7.15;1.75;;;;;;;13.99;51.18;100490.56;5029272;28;20088;-70
2021/03/17 05:50:48;;;;;;;6.65;2.00;;;;;;;14.09;50.00;100504.72;5029668;28;20041;-70
2021/03/17 05:53:15;;;;;;;4.60;1.38;;;;;;;14.22;49.89;100496.72;5030491;28;20052;-70
2021/03/17 05:55:44;;;;;;;5.60;1.63;;;;;;;14.43;50.45;100502.84;5030119;28;20172;-71
2021/03/17 05:58:13;;;;;;;4.22;1.27;;;;;;;14.60;49.99;100503.66;5028511;28;20133;-70
2021/03/17 06:00:40;;;;;;;3.42;1.08;;;;;;;14.66;50.02;100503.63;5019334;28;20037;-66
2021/03/17 06:03:19;;;;;;;6.22;1.90;;;;;;;14.79;49.46;100502.66;5013947;28;20049;-67
2021/03/17 06:06:06;;;;;;;3.80;0.95;;;;;;;14.93;49.54;100507.91;5023617;28;20049;-67
2021/03/17 06:08:55;;;;;;;5.97;1.90;;;;;;;15.04;49.94;100506.91;5033689;28;20044;-67
2021/03/17 06:11:24;;;;;;;6.45;1.50;;;;;;;15.19;49.55;100505.06;5018999;28;20088;-67
2021/03/17 06:13:57;;;;;;;4.75;1.17;;;;;;;15.35;48.60;100502.28;5038590;28;20045;-68
2021/03/17 06:16:27;;;;;;;5.63;1.30;;;;;;;15.41;48.00;100504.00;5029202;28;20075;-68
2021/03/17 06:19:15;;;;;;;4.55;1.38;;;;;;;15.53;47.86;100519.88;5026237;28;20095;-68
2021/03/17 06:21:49;;;;;;;7.68;2.65;;;;;;;15.56;46.25;100516.34;5029554;28;20068;-68
2021/03/17 06:24:23;;;;;;;5.22;1.23;;;;;;;15.69;46.60;100513.53;5012140;28;20042;-68
2021/03/17 06:27:12;;;;;;;4.00;0.70;;;;;;;15.64;45.49;100523.34;5020480;28;20084;-68
2021/03/17 06:29:59;;;;;;;5.07;1.20;;;;;;;15.67;44.87;100533.97;5029625;28;20048;-68
2021/03/17 06:32:45;;;;;;;6.38;1.98;;;;;;;15.85;44.93;100540.88;5028783;28;20107;-68
2021/03/17 06:35:32;;;;;;;8.05;2.20;;;;;;;16.02;43.20;100536.28;5026796;28;20402;-68
2021/03/17 06:38:00;;;;;;;3.22;0.95;;;;;;;16.17;43.59;100528.13;5011336;28;20044;-68
2021/03/17 06:40:57;;;;;;;5.10;1.30;;;;;;;15.75;42.95;100558.72;5030688;28;20056;-69
2021/03/17 06:43:45;;;;;;;1.65;0.63;;;;;;;15.32;43.70;100558.16;5012162;28;20061;-68
2021/03/17 06:46:16;;;;;;;4.28;1.33;;;;;;;15.11;44.32;100558.28;5024933;28;20034;-68
2021/03/17 06:49:01;;;;;;;4.07;1.27;;;;;;;14.86;44.58;100557.53;5022482;28;20171;-68
2021/03/17 06:51:38;;;;;;;3.83;1.15;;;;;;;14.69;44.75;100560.31;5025196;28;20125;-68
2021/03/17 06:54:23;;;;;;;3.13;0.70;;;;;;;14.53;45.02;100560.34;5003539;28;20168;-69
2021/03/17 06:57:43;;;;;;;3.53;1.70;;;;;;;14.93;44.39;100575.22;4995267;28;20070;-69
2021/03/17 07:00:33;;;;;;;2.92;1.30;;;;;;;15.47;44.25;100566.03;5004024;28;20108;-69
2021/03/17 07:03:03;;;;;;;4.22;1.38;;;;;;;15.76;43.63;100573.78;5008358;28;20117;-69
2021/03/17 07:05:47;;;;;;;7.45;1.77;;;;;;;15.79;43.56;100564.91;5006073;28;20442;-68
2021/03/17 07:08:15;;;;;;;3.17;0.80;;;;;;;16.08;42.33;100556.66;5001078;28;20034;-68
2021/03/17 07:10:45;;;;;;;3.95;0.80;;;;;;;16.39;42.74;100568.75;4997203;28;20041;-68
2021/03/17 07:13:31;;;;;;;4.20;1.40;;;;;;;16.19;42.77;100566.28;5012086;28;20077;-68
2021/03/17 07:16:29;;;;;;;3.85;1.35;;;;;;;15.82;43.24;100575.50;5010795;28;20042;-68
2021/03/17 07:18:57;;;;;;;4.65;0.95;;;;;;;15.66;42.31;100561.47;5028774;28;20045;-68
2021/03/17 07:21:34;;;;;;;3.13;1.33;;;;;;;16.09;42.26;100558.38;5027734;28;20049;-69
2021/03/17 07:24:24;;;;;;;4.70;1.30;;;;;;;16.40;41.38;100566.97;5029597;28;20069;-68
2021/03/17 07:26:52;;;;;;;6.07;1.60;;;;;;;16.78;41.41;100556.75;5032551;28;20045;-68
2021/03/17 07:29:19;;;;;;;9.68;2.17;;;;;;;17.23;41.35;100560.53;5033458;28;20041;-69
2021/03/17 07:32:05;;;;;;;4.95;0.95;;;;;;;17.47;41.00;100567.28;5027433;28;20140;-68
2021/03/17 07:37:09;;;;;;;8.15;2.40;;;;;;;18.06;41.41;100573.44;4599947;23;19967;-65
2021/03/17 07:39:38;;;;;;;13.20;5.15;;;;;;;18.36;41.78;100569.31;4972754;28;20043;-65
2021/03/17 07:42:07;;;;;;;11.30;6.50;;;;;;;18.52;40.21;100571.66;4971987;28;20137;-64
2021/03/17 07:44:36;;;;;;;5.35;1.90;;;;;;;18.52;40.47;100576.13;4963835;28;20090;-65
2021/03/17 07:47:06;;;;;;;4.75;1.30;;;;;;;18.70;40.27;100583.81;4958015;28;20091;-65
2021/03/17 07:49:36;;;;;;;4.20;1.30;;;;;;;18.67;40.34;100595.44;4970481;28;20046;-64
2021/03/17 07:52:03;;;;;;;3.60;1.45;;;;;;;18.22;40.97;100588.28;4963932;28;20086;-65
2021/03/17 07:54:33;;;;;;;7.25;3.50;;;;;;;17.81;40.99;100600.56;4962078;28;20046;-65
2021/03/17 07:57:02;;;;;;;12.18;5.40;;;;;;;17.79;41.09;100612.19;4973690;28;20058;-64
2021/03/17 07:59:31;;;;;;;16.75;7.63;;;;;;;17.44;38.65;100607.38;4969718;28;20038;-65
2021/03/17 08:01:59;;;;;;;14.30;6.70;;;;;;;17.00;37.70;100602.69;4986238;28;20118;-64
2021/03/17 08:04:28;;;;;;;10.80;5.30;;;;;;;16.66;37.29;100611.09;4971938;28;20045;-64
2021/03/17 08:06:56;;;;;;;18.88;8.35;;;;;;;16.44;36.84;100625.50;4973673;28;20062;-65
2021/03/17 08:09:23;;;;;;;7.15;2.15;;;;;;;16.25;36.61;100623.94;4973592;28;20042;-64
2021/03/17 08:11:53;;;;;;;9.23;3.40;;;;;;;16.76;36.79;100632.28;4958085;28;20049;-64
2021/03/17 08:14:22;;;;;;;13.52;5.97;;;;;;;17.42;36.77;100625.19;4965064;28;20126;-65
2021/03/17 08:16:49;;;;;;;12.07;5.78;;;;;;;18.03;36.74;100622.47;4972934;28;20050;-65
2021/03/17 08:19:25;;;;;;;3.10;1.20;;;;;;;18.41;36.08;100628.91;4972547;28;20122;-65
2021/03/17 08:21:55;;;;;;;5.03;1.75;;;;;;;18.74;36.66;100620.28;4972801;28;20051;-65
2021/03/17 08:24:41;;;;;;;4.55;1.10;;;;;;;18.89;36.50;100624.44;4970875;28;20045;-65
2021/03/17 08:27:21;;;;;;;5.00;0.80;;;;;;;18.99;36.59;100631.34;4971327;28;20046;-65
2021/03/17 08:29:51;;;;;;;1.10;0.50;;;;;;;19.18;36.99;100639.88;4962163;28;20126;-65
2021/03/17 08:32:19;;;;;;;3.78;1.10;;;;;;;19.36;37.38;100634.97;4971948;28;20109;-65
2021/03/17 08:34:54;;;;;;;3.22;0.82;;;;;;;19.53;37.84;100639.13;4967112;28;20043;-65
2021/03/17 08:37:42;;;;;;;29.83;15.05;;;;;;;19.83;38.33;100633.03;4956096;28;20123;-65
2021/03/17 08:40:48;;;;;;;22.88;10.52;;;;;;;20.05;37.39;100628.03;4953542;28;20047;-65
2021/03/17 08:43:47;;;;;;;13.48;5.82;;;;;;;20.30;38.26;100642.56;4962042;28;20058;-65
2021/03/17 08:46:17;;;;;;;16.25;7.38;;;;;;;20.54;38.43;100641.94;4917247;28;20489;-65
2021/03/17 08:48:59;;;;;;;21.65;11.07;;;;;;;20.73;37.40;100644.13;4948857;28;20100;-64
2021/03/17 08:52:05;;;;;;;10.32;2.92;;;;;;;20.67;36.09;100643.38;4971925;28;20042;-65
2021/03/17 08:55:08;;;;;;;7.72;1.55;;;;;;;20.64;36.82;100635.41;4974283;28;20034;-66
2021/03/17 08:58:01;;;;;;;8.88;1.83;;;;;;;20.65;36.06;100645.22;4981680;28;20043;-66
2021/03/17 09:00:44;;;;;;;5.38;1.27;;;;;;;20.68;35.66;100626.31;4982769;28;20045;-66
2021/03/17 09:03:48;;;;;;;5.65;1.20;;;;;;;20.88;36.02;100635.63;4980571;28;20039;-66
2021/03/17 09:06:22;;;;;;;4.90;0.80;;;;;;;21.08;35.37;100631.44;4976151;28;20039;-66
2021/03/17 09:08:54;;;;;;;;;;;;;;;21.13;35.49;100625.06;4987396;28;20042;-65
2021/03/17 09:11:54;;;;;;;4.20;1.17;;;;;;;20.94;34.66;100638.13;4976864;28;20053;-66
2021/03/17 09:14:42;;;;;;;5.80;1.20;;;;;;;20.99;34.59;100638.88;4980207;28;20392;-65
2021/03/17 09:17:23;;;;;;;3.90;1.40;;;;;;;21.00;34.46;100632.59;4971440;28;20042;-66
2021/03/17 09:20:10;;;;;;;5.72;1.05;;;;;;;21.20;34.98;100619.47;4987977;28;20058;-65
2021/03/17 09:22:46;;;;;;;6.88;1.20;;;;;;;21.21;33.71;100634.66;4987314;28;20575;-65
2021/03/17 09:25:24;;;;;;;7.68;0.93;;;;;;;21.20;33.38;100640.94;4970885;28;20058;-65
2021/03/17 09:27:55;;;;;;;3.10;0.70;;;;;;;21.18;33.98;100642.81;4990362;28;20042;-66
2021/03/17 09:30:24;;;;;;;4.47;0.93;;;;;;;21.22;34.15;100643.59;4985773;28;20133;-66
2021/03/17 09:33:00;;;;;;;6.13;1.98;;;;;;;20.83;33.39;100642.91;4990176;28;20537;-65
2021/03/17 09:35:27;;;;;;;2.55;0.77;;;;;;;20.25;34.05;100631.06;4976750;28;20030;-65
2021/03/17 09:38:11;;;;;;;6.72;1.15;;;;;;;20.45;34.39;100635.94;4972324;28;20074;-65
2021/03/17 09:40:49;;;;;;;3.88;0.80;;;;;;;20.27;34.02;100629.25;4976213;28;20093;-65
2021/03/17 09:43:45;;;;;;;6.63;0.80;;;;;;;20.40;34.30;100627.16;4971800;28;20039;-65
2021/03/17 09:46:29;;;;;;;4.25;0.90;;;;;;;20.75;34.28;100631.53;4951997;28;20519;-65
2021/03/17 09:48:59;;;;;;;4.65;0.80;;;;;;;20.56;34.27;100631.16;4963345;28;20372;-64
2021/03/17 09:51:28;;;;;;;4.32;1.27;;;;;;;20.65;34.54;100631.78;4974549;28;20348;-65
2021/03/17 09:53:57;;;;;;;5.30;0.85;;;;;;;20.94;33.92;100630.94;4982178;28;20046;-65
2021/03/17 09:56:35;;;;;;;4.32;1.10;;;;;;;21.05;34.06;100627.97;4979871;28;20046;-66
2021/03/17 09:59:16;;;;;;;5.90;0.98;;;;;;;21.30;33.92;100625.47;4973488;28;20049;-65
2021/03/17 10:01:57;;;;;;;4.57;1.45;;;;;;;21.46;33.64;100627.59;4968716;28;20045;-64
2021/03/17 10:04:26;;;;;;;5.00;1.30;;;;;;;21.60;33.58;100627.16;4965716;28;20058;-63
2021/03/17 10:06:53;;;;;;;6.25;1.75;;;;;;;21.66;33.68;100626.13;4965226;28;20142;-66
2021/03/17 10:09:21;;;;;;;4.85;1.00;;;;;;;21.67;32.95;100630.53;4964388;28;20035;-63
2021/03/17 10:11:49;;;;;;;5.20;1.45;;;;;;;21.81;32.79;100631.88;4970865;28;20138;-63
2021/03/17 10:14:18;;;;;;;5.20;1.73;;;;;;;21.72;32.10;100636.69;4966825;28;20566;-66
2021/03/17 10:16:46;;;;;;;2.65;0.73;;;;;;;21.68;32.15;100626.94;4951447;28;20058;-63
2021/03/17 10:19:14;;;;;;;3.38;0.85;;;;;;;21.59;32.25;100629.94;4970400;28;20151;-63
2021/03/17 10:21:43;;;;;;;2.28;0.50;;;;;;;21.41;31.95;100628.69;4971135;28;20039;-66
2021/03/17 10:24:10;;;;;;;2.95;0.50;;;;;;;21.50;33.09;100617.66;4970586;28;20456;-63
2021/03/17 10:26:42;;;;;;;4.75;0.90;;;;;;;21.62;33.13;100627.13;4970878;28;20035;-63
2021/03/17 10:29:09;;;;;;;2.65;0.57;;;;;;;21.74;32.10;100615.97;4967492;28;20122;-63
2021/03/17 10:31:39;;;;;;;4.43;0.90;;;;;;;21.86;32.04;100620.94;4968987;28;20047;-63
2021/03/17 10:34:14;;;;;;;2.22;0.55;;;;;;;21.96;31.50;100616.19;4969292;28;20047;-63
2021/03/17 10:36:42;;;;;;;5.47;0.90;;;;;;;22.01;30.83;100636.63;4950681;28;20191;-63
2021/03/17 10:39:09;;;;;;;2.72;0.47;;;;;;;21.84;29.58;100634.47;4951914;28;20130;-63
2021/03/17 10:41:41;;;;;;;1.10;0.30;;;;;;;21.58;29.04;100625.47;4951660;28;20134;-63
2021/03/17 10:44:16;;;;;;;2.33;0.40;;;;;;;21.38;29.44;100624.31;4964653;28;20082;-63
2021/03/17 10:47:00;;;;;;;3.90;0.63;;;;;;;21.39;29.72;100628.75;4964651;28;20070;-63
2021/03/17 10:49:28;;;;;;;2.40;0.50;;;;;;;21.44;30.26;100639.34;4951414;28;20043;-63
2021/03/17 10:51:57;;;;;;;2.40;0.45;;;;;;;21.55;30.57;100630.94;4951816;28;20050;-63
2021/03/17 10:54:33;;;;;;;3.47;0.60;;;;;;;21.56;29.70;100630.91;4952295;28;20031;-63
2021/03/17 10:57:01;;;;;;;4.47;1.23;;;;;;;21.47;29.40;100624.00;4951770;28;20048;-62
2021/03/17 10:59:31;;;;;;;2.90;1.08;;;;;;;21.37;28.79;100621.66;4953164;28;20043;-63
2021/03/17 11:02:20;;;;;;;2.47;0.50;;;;;;;21.38;27.95;100629.69;4957842;28;20122;-63
2021/03/17 11:05:18;;;;;;;2.00;0.50;;;;;;;21.36;28.18;100626.16;4958731;28;20519;-63
2021/03/17 11:07:51;;;;;;;3.70;1.05;;;;;;;21.43;27.99;100626.84;4966903;28;20161;-63
2021/03/17 11:10:36;;;;;;;1.88;0.70;;;;;;;21.35;28.01;100627.06;4974915;28;20147;-63
2021/03/17 11:13:23;;;;;;;2.63;0.50;;;;;;;21.57;27.66;100621.03;4974441;28;20133;-63
2021/03/17 11:15:52;;;;;;;2.95;0.60;;;;;;;21.55;28.04;100609.44;4967421;28;20065;-63
2021/03/17 11:18:23;;;;;;;2.55;0.60;;;;;;;21.42;28.52;100608.94;4955294;28;20415;-63
2021/03/17 11:20:51;;;;;;;4.22;0.70;;;;;;;21.43;29.01;100610.72;4967253;28;20406;-63
2021/03/17 11:23:22;;;;;;;4.47;0.70;;;;;;;21.67;29.44;100617.09;4973883;28;20039;-63
2021/03/17 11:25:49;;;;;;;5.00;0.63;;;;;;;21.80;29.82;100622.03;4961590;28;20045;-65
2021/03/17 11:28:18;;;;;;;4.78;1.60;;;;;;;21.98;30.87;100615.22;4955408;28;20406;-65
2021/03/17 11:30:46;;;;;;;5.47;1.00;;;;;;;22.06;31.72;100629.25;4958817;28;20074;-65
2021/03/17 11:33:15;;;;;;;3.38;0.82;;;;;;;22.18;31.70;100626.19;4974735;28;20043;-65
2021/03/17 11:35:42;;;;;;;3.03;0.90;;;;;;;22.25;30.57;100627.69;4966664;28;20455;-66
2021/03/17 11:38:10;;;;;;;7.38;1.55;;;;;;;22.25;31.07;100629.53;4974253;28;20074;-66
2021/03/17 11:40:39;;;;;;;3.53;0.73;;;;;;;22.30;30.70;100624.88;4974070;28;20473;-63
2021/03/17 11:43:12;;;;;;;4.50;0.77;;;;;;;22.49;30.69;100633.19;4974282;28;20075;-63
2021/03/17 11:45:41;;;;;;;6.07;1.05;;;;;;;22.41;30.97;100633.44;4973228;28;20058;-63
2021/03/17 11:48:08;;;;;;;5.63;0.80;;;;;;;22.19;30.77;100629.72;4974205;28;20062;-63
2021/03/17 11:50:36;;;;;;;3.15;0.65;;;;;;;22.29;30.17;100628.50;4973710;28;20047;-63
2021/03/17 11:53:04;;;;;;;2.67;0.70;;;;;;;22.24;29.34;100633.16;4974188;28;20469;-63
2021/03/17 11:55:33;;;;;;;3.05;0.60;;;;;;;22.29;29.19;100619.53;4964952;28;20114;-63